createdAt,value
2018-06-10T00:00:53.969Z,10.17
2018-06-10T00:04:54.544Z,10.43
2018-06-10T00:08:48.816Z,10.53
2018-06-10T00:12:43.286Z,10.08
2018-06-10T00:16:37.683Z,9.05
2018-06-10T00:20:32.277Z,10.13
2018-06-10T00:24:27.044Z,9.90
2018-06-10T00:28:26.490Z,10.10
2018-06-10T00:32:20.697Z,10.45
2018-06-10T00:36:14.761Z,9.68
2018-06-10T00:40:08.766Z,9.60
2018-06-10T00:44:03.464Z,10.63
2018-06-10T00:47:57.457Z,10.28
2018-06-10T00:51:51.667Z,8.65
2018-06-10T00:55:45.839Z,10.72
2018-06-10T00:59:39.850Z,10.75
2018-06-10T01:03:33.900Z,13.00
2018-06-10T01:07:28.103Z,9.85
2018-06-10T01:11:22.180Z,9.53
2018-06-10T01:15:16.204Z,9.73
2018-06-10T01:19:10.369Z,12.70
2018-06-10T01:23:03.842Z,15.50
2018-06-10T01:26:57.783Z,19.05
2018-06-10T01:30:51.971Z,17.62
2018-06-10T01:34:46.186Z,17.85
2018-06-10T01:38:40.395Z,13.37
2018-06-10T01:42:35.040Z,11.68
2018-06-10T01:46:32.986Z,10.82
2018-06-10T01:50:35.250Z,11.80
2018-06-10T01:54:28.873Z,10.53
2018-06-10T01:58:22.917Z,9.40
2018-06-10T02:02:16.975Z,10.53
2018-06-10T02:06:11.538Z,13.95
2018-06-10T02:10:05.657Z,12.50
2018-06-10T02:13:59.881Z,12.97
2018-06-10T02:17:53.970Z,13.35
2018-06-10T02:21:47.692Z,14.30
2018-06-10T02:25:41.702Z,13.13
2018-06-10T02:29:35.791Z,13.60
2018-06-10T02:33:30.591Z,15.72
2018-06-10T02:37:24.664Z,14.47
2018-06-10T02:41:18.679Z,19.62
2018-06-10T02:45:12.672Z,21.10
2018-06-10T02:49:07.459Z,23.30
2018-06-10T02:53:01.712Z,25.47
2018-06-10T02:56:55.698Z,24.45
2018-06-10T03:00:49.693Z,24.03
2018-06-10T03:04:43.811Z,25.67
2018-06-10T03:08:41.436Z,25.87
2018-06-10T03:12:37.684Z,28.07
2018-06-10T03:16:31.708Z,28.27
2018-06-10T03:20:25.215Z,25.35
2018-06-10T03:24:19.298Z,24.92
2018-06-10T03:28:14.172Z,28.62
2018-06-10T03:32:08.304Z,27.13
2018-06-10T03:36:02.488Z,28.00
2018-06-10T03:39:56.831Z,25.02
2018-06-10T03:43:50.785Z,29.02
2018-06-10T03:47:44.846Z,27.30
2018-06-10T03:51:38.991Z,27.67
2018-06-10T03:59:51.144Z,31.57
2018-06-10T04:03:46.624Z,29.48
2018-06-10T04:07:40.838Z,28.15
2018-06-10T04:11:35.009Z,27.30
2018-06-10T04:15:28.956Z,28.07
2018-06-10T04:19:22.947Z,24.73
2018-06-10T04:23:16.452Z,21.13
2018-06-10T04:27:11.167Z,20.92
2018-06-10T04:31:05.681Z,19.87
2018-06-10T04:34:59.647Z,18.63
2018-06-10T04:38:53.804Z,18.23
2018-06-10T04:42:48.374Z,17.10
2018-06-10T04:46:42.558Z,18.40
2018-06-10T04:50:37.710Z,17.43
2018-06-10T04:54:31.674Z,17.00
2018-06-10T04:58:29.666Z,15.83
2018-06-10T05:02:26.006Z,15.33
2018-06-10T05:06:20.068Z,15.53
2018-06-10T05:10:14.243Z,14.90
2018-06-10T05:14:08.660Z,14.38
2018-06-10T05:18:02.763Z,14.37
2018-06-10T05:21:56.318Z,16.33
2018-06-10T05:25:50.510Z,16.67
2018-06-10T05:29:44.551Z,17.27
2018-06-10T05:33:38.879Z,15.58
2018-06-10T05:37:33.034Z,16.10
2018-06-10T05:41:28.078Z,18.10
2018-06-10T05:45:22.179Z,17.30
2018-06-10T05:49:16.242Z,18.02
2018-06-10T05:53:10.313Z,18.75
2018-06-10T05:57:04.484Z,18.00
2018-06-10T06:00:58.757Z,18.02
2018-06-10T06:04:53.159Z,18.53
2018-06-10T06:08:48.249Z,19.52
2018-06-10T06:16:36.953Z,13.98
2018-06-10T06:20:30.838Z,13.47
2018-06-10T06:24:24.910Z,13.60
2018-06-10T06:28:18.959Z,11.73
2018-06-10T06:32:13.956Z,12.00
2018-06-10T06:36:08.806Z,10.50
2018-06-10T06:40:03.303Z,10.20
2018-06-10T06:44:01.140Z,10.03
2018-06-10T06:47:55.527Z,10.27
2018-06-10T06:51:50.950Z,9.95
2018-06-10T06:55:46.307Z,10.53
2018-06-10T06:59:41.321Z,9.93
2018-06-10T07:03:35.604Z,10.23
2018-06-10T07:07:30.011Z,10.97
2018-06-10T07:11:24.471Z,10.37
2018-06-10T07:15:19.348Z,11.33
2018-06-10T07:19:13.657Z,10.20
2018-06-10T07:23:08.109Z,10.55
2018-06-10T07:27:02.710Z,13.97
2018-06-10T07:30:56.938Z,13.70
2018-06-10T07:34:51.755Z,13.98
2018-06-10T07:38:47.268Z,13.93
2018-06-10T07:42:41.656Z,14.00
2018-06-10T07:46:36.339Z,15.17
2018-06-10T07:50:31.047Z,15.53
2018-06-10T07:54:27.431Z,16.48
2018-06-10T07:58:22.786Z,16.20
2018-06-10T08:02:19.316Z,18.07
2018-06-10T08:06:14.768Z,16.37
2018-06-10T08:10:11.381Z,17.87
2018-06-10T08:14:05.667Z,18.90
2018-06-10T08:17:59.931Z,17.17
2018-06-10T08:21:53.983Z,17.63
2018-06-10T08:25:48.465Z,19.30
2018-06-10T08:29:42.720Z,20.70
2018-06-10T08:33:36.232Z,20.10
2018-06-10T08:37:29.543Z,21.40
2018-06-10T08:41:23.562Z,21.63
2018-06-10T08:45:17.787Z,25.10
2018-06-10T08:49:11.790Z,26.97
2018-06-10T08:53:05.909Z,27.33
2018-06-10T08:57:00.497Z,26.23
2018-06-10T09:00:55.709Z,26.07
2018-06-10T09:04:50.031Z,25.73
2018-06-10T09:08:44.967Z,25.17
2018-06-10T09:12:39.094Z,31.13
2018-06-10T09:16:33.943Z,32.70
2018-06-10T09:20:27.439Z,34.20
2018-06-10T09:24:21.682Z,39.18
2018-06-10T09:28:15.922Z,39.70
2018-06-10T09:32:09.650Z,38.08
2018-06-10T09:36:03.865Z,39.63
2018-06-10T09:39:57.834Z,41.30
2018-06-10T09:43:53.009Z,38.43
2018-06-10T09:47:47.061Z,39.20
2018-06-10T09:51:41.284Z,39.73
2018-06-10T09:55:35.185Z,38.17
2018-06-10T09:59:29.092Z,38.75
2018-06-10T10:03:23.196Z,39.10
2018-06-10T10:07:17.328Z,39.17
2018-06-10T10:11:11.478Z,37.80
2018-06-10T10:15:05.552Z,39.70
2018-06-10T10:18:59.560Z,34.88
2018-06-10T10:22:52.702Z,35.98
2018-06-10T10:26:46.626Z,36.37
2018-06-10T10:30:40.680Z,29.77
2018-06-10T10:34:35.090Z,33.80
2018-06-10T10:38:29.085Z,28.23
2018-06-10T10:42:23.135Z,27.73
2018-06-10T10:46:17.304Z,25.50
2018-06-10T10:50:11.426Z,25.37
2018-06-10T10:54:05.573Z,26.30
2018-06-10T10:58:00.730Z,25.90
2018-06-10T11:01:55.263Z,22.60
2018-06-10T11:05:49.376Z,22.15
2018-06-10T11:09:44.647Z,23.20
2018-06-10T11:13:39.377Z,24.13
2018-06-10T11:17:34.534Z,21.57
2018-06-10T11:21:28.009Z,18.50
2018-06-10T11:25:22.150Z,22.98
2018-06-10T11:29:16.335Z,19.97
2018-06-10T11:33:10.488Z,17.27
2018-06-10T11:37:05.847Z,19.10
2018-06-10T11:41:03.815Z,20.70
2018-06-10T11:44:57.997Z,21.30
2018-06-10T11:48:53.168Z,20.03
2018-06-10T11:52:48.092Z,18.70
2018-06-10T11:56:42.814Z,20.17
2018-06-10T12:00:37.003Z,18.37
2018-06-10T12:04:30.984Z,18.92
2018-06-10T12:08:25.012Z,20.57
2018-06-10T12:12:19.087Z,19.87
2018-06-10T12:16:13.129Z,21.12
2018-06-10T12:20:08.903Z,21.57
2018-06-10T12:24:02.395Z,19.17
2018-06-10T12:27:56.419Z,18.30
2018-06-10T12:31:50.465Z,18.03
2018-06-10T12:35:44.435Z,17.67
2018-06-10T12:39:38.512Z,17.48
2018-06-10T12:43:34.980Z,16.85
2018-06-10T12:47:29.874Z,16.55
2018-06-10T12:51:23.931Z,15.90
2018-06-10T12:55:18.285Z,15.10
2018-06-10T12:59:12.279Z,15.53
2018-06-10T13:03:06.434Z,15.10
2018-06-10T13:07:00.564Z,15.83
2018-06-10T13:10:55.174Z,14.03
2018-06-10T13:14:49.153Z,11.30
2018-06-10T13:18:44.081Z,13.93
2018-06-10T13:22:37.938Z,13.20
2018-06-10T13:26:32.007Z,11.63
2018-06-10T13:30:26.067Z,14.17
2018-06-10T13:34:20.203Z,12.60
2018-06-10T13:38:14.650Z,12.85
2018-06-10T13:42:09.311Z,11.97
2018-06-10T13:46:03.500Z,10.45
2018-06-10T13:49:57.635Z,10.23
2018-06-10T13:53:52.530Z,10.23
2018-06-10T13:57:46.685Z,10.83
2018-06-10T14:01:40.744Z,9.43
2018-06-10T14:05:35.109Z,9.00
2018-06-10T14:09:29.443Z,9.48
2018-06-10T14:13:23.544Z,9.03
2018-06-10T14:17:17.575Z,10.67
2018-06-10T14:21:11.104Z,11.10
2018-06-10T14:25:06.372Z,11.07
2018-06-10T14:29:01.684Z,11.95
2018-06-10T14:32:55.707Z,12.23
2018-06-10T14:36:49.805Z,12.63
2018-06-10T14:40:44.353Z,11.85
2018-06-10T14:44:38.060Z,12.10
2018-06-10T14:48:32.280Z,11.07
2018-06-10T14:52:26.979Z,9.93
2018-06-10T14:56:21.015Z,12.13
2018-06-10T15:00:15.017Z,11.20
2018-06-10T15:04:09.142Z,11.97
2018-06-10T15:08:03.121Z,11.85
2018-06-10T15:11:57.288Z,11.30
2018-06-10T15:15:51.388Z,11.23
2018-06-10T15:19:45.534Z,12.00
2018-06-10T15:23:38.976Z,10.13
2018-06-10T15:27:33.052Z,10.03
2018-06-10T15:31:28.120Z,8.75
2018-06-10T15:35:23.355Z,9.17
2018-06-10T15:39:18.060Z,11.47
2018-06-10T15:43:12.044Z,10.30
2018-06-10T15:47:06.069Z,8.97
2018-06-10T15:51:00.222Z,8.50
2018-06-10T15:54:54.192Z,9.20
2018-06-10T15:58:48.558Z,9.60
2018-06-10T16:02:42.758Z,8.25
2018-06-10T16:06:36.707Z,8.30
2018-06-10T16:10:31.257Z,8.08
2018-06-10T16:14:25.375Z,8.00
2018-06-10T16:18:20.100Z,7.83
2018-06-10T16:22:13.541Z,7.80
2018-06-10T16:26:07.700Z,6.70
2018-06-10T16:30:01.703Z,7.90
2018-06-10T16:33:55.779Z,7.58
2018-06-10T16:37:49.792Z,7.40
2018-06-10T16:41:44.004Z,8.47
2018-06-10T16:45:38.024Z,7.13
2018-06-10T16:49:32.192Z,6.97
2018-06-10T16:53:26.253Z,7.47
2018-06-10T16:57:20.331Z,7.75
2018-06-10T17:01:14.405Z,6.80
2018-06-10T17:05:08.577Z,7.50
2018-06-10T17:09:03.444Z,7.83
2018-06-10T17:12:58.607Z,7.57
2018-06-10T17:16:52.748Z,7.83
2018-06-10T17:20:46.965Z,7.87
2018-06-10T17:24:40.398Z,7.50
2018-06-10T17:28:34.415Z,8.00
2018-06-10T17:32:28.549Z,7.63
2018-06-10T17:36:22.936Z,7.67
2018-06-10T17:40:17.533Z,8.30
2018-06-10T17:44:11.742Z,7.20
2018-06-10T17:48:05.851Z,7.60
2018-06-10T17:51:59.884Z,6.90
2018-06-10T17:55:54.035Z,7.35
2018-06-10T17:59:48.104Z,7.90
2018-06-10T18:03:42.092Z,8.13
2018-06-10T18:07:36.114Z,7.77
2018-06-10T18:11:31.388Z,8.23
2018-06-10T18:15:25.490Z,8.13
2018-06-10T18:19:19.518Z,7.55
2018-06-10T18:23:13.102Z,7.72
2018-06-10T18:27:07.138Z,7.90
2018-06-10T18:31:01.209Z,8.13
2018-06-10T18:34:55.225Z,7.00
2018-06-10T18:38:49.264Z,7.90
2018-06-10T18:42:43.585Z,7.90
2018-06-10T18:46:37.777Z,7.37
2018-06-10T18:50:31.921Z,8.08
2018-06-10T18:54:26.064Z,7.70
2018-06-10T18:58:20.076Z,8.15
2018-06-10T19:02:14.223Z,8.90
2018-06-10T19:06:08.476Z,8.65
2018-06-10T19:10:02.632Z,8.05
2018-06-10T19:13:56.984Z,9.08
2018-06-10T19:17:49.958Z,10.00
2018-06-10T19:21:43.697Z,9.00
2018-06-10T19:25:37.784Z,10.30
2018-06-10T19:29:31.887Z,9.48
2018-06-10T19:33:25.939Z,9.23
2018-06-10T19:37:20.094Z,10.85
2018-06-10T19:41:14.437Z,9.83
2018-06-10T19:45:08.499Z,9.93
2018-06-10T19:49:02.545Z,9.08
2018-06-10T19:52:57.109Z,8.80
2018-06-10T19:56:50.954Z,9.58
2018-06-10T20:00:46.259Z,9.47
2018-06-10T20:04:43.135Z,9.10
2018-06-10T20:08:37.127Z,8.83
2018-06-10T20:12:31.792Z,7.57
2018-06-10T20:16:25.894Z,8.90
2018-06-10T20:20:20.180Z,9.48
2018-06-10T20:24:15.778Z,9.90
2018-06-10T20:28:10.107Z,9.73
2018-06-10T20:32:04.218Z,10.13
2018-06-10T20:36:03.981Z,9.80
2018-06-10T20:40:03.327Z,10.30
2018-06-10T20:43:57.066Z,10.20
2018-06-10T20:47:51.141Z,11.18
2018-06-10T20:51:45.216Z,11.77
2018-06-10T20:55:39.261Z,11.45
2018-06-10T20:59:33.492Z,12.73
2018-06-10T21:03:28.036Z,12.90
2018-06-10T21:07:22.070Z,13.00
2018-06-10T21:11:18.620Z,12.30
2018-06-10T21:15:13.246Z,13.00
2018-06-10T21:19:08.310Z,12.85
2018-06-10T21:23:02.815Z,12.50
2018-06-10T21:26:56.885Z,12.73
2018-06-10T21:30:52.779Z,12.87
2018-06-10T21:34:47.636Z,13.18
2018-06-10T21:38:42.195Z,13.13
2018-06-10T21:42:37.211Z,12.40
2018-06-10T21:46:31.266Z,14.63
2018-06-10T21:50:25.385Z,14.23
2018-06-10T21:54:19.399Z,14.53
2018-06-10T21:58:13.436Z,14.03
2018-06-10T22:02:07.279Z,14.10
2018-06-10T22:06:01.256Z,14.58
2018-06-10T22:09:55.332Z,14.30
2018-06-10T22:13:49.489Z,14.80
2018-06-10T22:17:45.229Z,14.85
2018-06-10T22:21:39.183Z,14.47
2018-06-10T22:25:32.727Z,13.72
2018-06-10T22:29:26.803Z,14.80
2018-06-10T22:33:21.283Z,14.37
2018-06-10T22:37:15.371Z,14.70
2018-06-10T22:41:09.812Z,14.38
2018-06-10T22:45:03.988Z,13.90
2018-06-10T22:48:59.191Z,14.17
2018-06-10T22:55:02.550Z,13.60
2018-06-10T22:58:56.979Z,14.27
2018-06-10T23:02:51.574Z,14.55
2018-06-10T23:06:45.636Z,14.18
2018-06-10T23:10:39.629Z,13.47
2018-06-10T23:14:33.887Z,13.70
2018-06-10T23:18:27.896Z,13.10
2018-06-10T23:22:21.397Z,14.43
2018-06-10T23:26:15.611Z,13.98
2018-06-10T23:30:09.601Z,13.38
2018-06-10T23:34:03.649Z,14.47
2018-06-10T23:37:57.868Z,14.00
2018-06-10T23:41:51.902Z,14.30
2018-06-10T23:45:45.863Z,14.40
2018-06-10T23:49:39.990Z,15.25
2018-06-10T23:53:34.145Z,15.72
2018-06-10T23:57:28.287Z,15.73
